This is the latest recevied weather packets stored in our database for station/object HG6IQI-10. If no packets are shown the sender has not sent any weather packets the latest 10 day(s).
| Time | Temp. | Humidity | Pressure | Rain* | Wind** | Luminosity | Snow |
|---|---|---|---|---|---|---|---|
| 1777892599 | 22.78° C | 24% | 1018.9 hPa | - | - | - | - |
| 1777891699 | 22.78° C | 24% | 1019.3 hPa | - | - | - | - |
| 1777890799 | 22.78° C | 26% | 1019.3 hPa | - | - | - | - |
| 1777889901 | 22.78° C | 26% | 1019.6 hPa | - | - | - | - |
| 1777889001 | 22.22° C | 25% | 1019.9 hPa | - | - | - | - |
| 1777888101 | 21.67° C | 27% | 1020 hPa | - | - | - | - |
| 1777887200 | 21.11° C | 26% | 1020.2 hPa | - | - | - | - |
| 1777886300 | 20.56° C | 25% | 1020.3 hPa | - | - | - | - |
| 1777885400 | 21.11° C | 27% | 1020.4 hPa | - | - | - | - |
| 1777884500 | 20° C | 25% | 1020.6 hPa | - | - | - | - |
| 1777883600 | 20.56° C | 27% | 1020.7 hPa | - | - | - | - |
| 1777882700 | 20° C | 32% | 1020.6 hPa | - | - | - | - |
| 1777881800 | 20° C | 35% | 1020.6 hPa | - | - | - | - |
| 1777880900 | 18.89° C | 36% | 1020.7 hPa | - | - | - | - |
| 1777880000 | 18.89° C | 38% | 1020.8 hPa | - | - | - | - |
| 1777879100 | 17.78° C | 39% | 1020.7 hPa | - | - | - | - |
| 1777878199 | 16.67° C | 42% | 1020.6 hPa | - | - | - | - |
| 1777877299 | 16.11° C | 44% | 1020.6 hPa | - | - | - | - |
| 1777876399 | 15° C | 48% | 1020.6 hPa | - | - | - | - |
| 1777875499 | 13.89° C | 54% | 1020.7 hPa | - | - | - | - |
| 1777874599 | 12.22° C | 59% | 1020.6 hPa | - | - | - | - |
| 1777873700 | 11.11° C | 62% | 1020.6 hPa | - | - | - | - |
| 1777872799 | 10° C | 64% | 1020.6 hPa | - | - | - | - |
| 1777871899 | 8.89° C | 67% | 1020.6 hPa | - | - | - | - |
| 1777870999 | 8.89° C | 74% | 1020.5 hPa | - | - | - | - |
* Rain since midnight (hover to see other rain measurements)
** Current wind speed in m/s (hover to see current wind gust speed)